Time;durP1;ratioP1;P1;durP2;ratioP2;P2;SDS_P1;SDS_P2;PMS_P1;PMS_P2;Temp;Humidity;BMP_temperature;BMP_pressure;BME280_temperature;BME280_humidity;BME280_pressure;Samples;Min_cycle;Max_cycle;Signal;HPM_P1;HPM_P2
2023/04/18 00:00:47;;;;;;;3.05;2.85;;;24.10;57.10;;;;;;5069910;28;20727;-64
2023/04/18 00:03:36;;;;;;;3.40;2.83;;;24.10;57.00;;;;;;5069610;28;20700;-64
2023/04/18 00:06:25;;;;;;;4.65;3.50;;;24.10;57.10;;;;;;5071094;28;20693;-64
2023/04/18 00:09:13;;;;;;;3.75;3.20;;;24.00;57.10;;;;;;5072159;28;20351;-64
2023/04/18 00:12:03;;;;;;;3.63;3.30;;;24.10;57.20;;;;;;5075272;28;20612;-64
2023/04/18 00:14:52;;;;;;;3.17;2.88;;;24.10;57.10;;;;;;5075006;28;20228;-64
2023/04/18 00:17:40;;;;;;;3.20;2.92;;;24.00;57.10;;;;;;5073824;28;20574;-64
2023/04/18 00:20:28;;;;;;;4.05;3.63;;;24.00;57.10;;;;;;5074208;28;20192;-64
2023/04/18 00:23:16;;;;;;;3.55;3.33;;;24.00;57.00;;;;;;5074400;28;20282;-64
2023/04/18 00:26:04;;;;;;;3.42;3.05;;;24.00;56.80;;;;;;5074082;28;20196;-64
2023/04/18 00:28:52;;;;;;;3.45;3.15;;;24.00;57.00;;;;;;5073999;28;20280;-64
2023/04/18 00:31:41;;;;;;;3.83;3.53;;;24.10;57.00;;;;;;5072557;28;20669;-64
2023/04/18 00:34:29;;;;;;;3.50;3.20;;;24.10;57.00;;;;;;5074370;28;20279;-64
2023/04/18 00:37:17;;;;;;;3.17;2.88;;;24.10;57.00;;;;;;5072871;28;20231;-64
2023/04/18 00:40:06;;;;;;;3.60;3.30;;;24.20;57.00;;;;;;5072380;28;20299;-64
2023/04/18 00:42:55;;;;;;;4.40;4.00;;;24.10;56.90;;;;;;5072818;28;20287;-64
2023/04/18 00:45:44;;;;;;;3.58;3.10;;;24.10;56.90;;;;;;5066999;28;20215;-64
2023/04/18 00:48:34;;;;;;;4.72;4.30;;;24.10;56.90;;;;;;5054112;28;20626;-64
2023/04/18 00:51:23;;;;;;;4.30;3.90;;;24.10;56.90;;;;;;5054089;28;20211;-63
2023/04/18 00:54:12;;;;;;;2.85;2.63;;;24.20;56.90;;;;;;5054115;28;20206;-64
2023/04/18 00:57:01;;;;;;;3.88;3.58;;;24.20;56.90;;;;;;5054249;28;20217;-64
2023/04/18 00:59:49;;;;;;;4.60;3.20;;;24.20;56.80;;;;;;5054128;28;20272;-64
2023/04/18 01:02:38;;;;;;;3.63;3.33;;;24.30;56.90;;;;;;5061645;28;20201;-65
2023/04/18 01:05:28;;;;;;;3.30;3.08;;;24.20;56.80;;;;;;5069399;28;20287;-64
2023/04/18 01:08:18;;;;;;;3.78;3.28;;;24.10;56.80;;;;;;5069213;28;20257;-64
2023/04/18 01:11:06;;;;;;;3.70;3.40;;;24.10;56.80;;;;;;5065362;28;20221;-64
2023/04/18 01:14:01;;;;;;;3.83;3.45;;;24.10;56.80;;;;;;5054854;28;20205;-64
2023/04/18 01:16:49;;;;;;;3.38;3.17;;;24.10;56.80;;;;;;5053555;28;20461;-64
2023/04/18 01:19:38;;;;;;;3.80;3.47;;;24.10;57.50;;;;;;5053125;28;20248;-64
2023/04/18 01:22:28;;;;;;;3.58;3.13;;;24.10;56.80;;;;;;5053194;28;20681;-64
2023/04/18 01:25:17;;;;;;;3.28;3.03;;;24.10;56.70;;;;;;5053182;28;20584;-64
2023/04/18 01:28:06;;;;;;;3.90;3.20;;;24.00;56.70;;;;;;5053367;28;20314;-64
2023/04/18 01:30:54;;;;;;;3.55;3.25;;;24.10;56.80;;;;;;5053340;28;20322;-64
2023/04/18 01:33:42;;;;;;;3.95;3.65;;;24.00;56.80;;;;;;5053016;28;20205;-64
2023/04/18 01:36:31;;;;;;;4.30;3.80;;;23.90;56.80;;;;;;5052898;28;20717;-64
2023/04/18 01:39:19;;;;;;;3.60;3.30;;;23.90;56.80;;;;;;5058989;28;20235;-64
2023/04/18 01:42:08;;;;;;;3.65;3.35;;;23.90;56.70;;;;;;5071284;28;20243;-64
2023/04/18 01:44:57;;;;;;;4.68;4.25;;;24.00;56.80;;;;;;5071410;28;20295;-64
2023/04/18 01:47:45;;;;;;;3.50;3.20;;;24.00;56.60;;;;;;5053159;28;20265;-64
2023/04/18 01:50:33;;;;;;;3.70;3.38;;;24.00;56.60;;;;;;5053044;28;20217;-64
2023/04/18 01:53:22;;;;;;;4.88;3.53;;;24.10;56.70;;;;;;5051826;28;20211;-64
2023/04/18 01:56:10;;;;;;;3.28;2.97;;;24.10;62.30;;;;;;5053005;28;20243;-64
2023/04/18 01:59:00;;;;;;;3.83;3.25;;;24.00;56.70;;;;;;5052018;28;20772;-64
2023/04/18 02:01:48;;;;;;;3.50;3.20;;;24.20;56.70;;;;;;5051657;28;20744;-64
2023/04/18 02:04:36;;;;;;;3.63;3.33;;;24.10;56.60;;;;;;5052089;28;20323;-64
2023/04/18 02:07:24;;;;;;;3.85;3.15;;;24.20;56.60;;;;;;5052095;28;20307;-64
2023/04/18 02:10:12;;;;;;;4.15;3.45;;;24.10;56.50;;;;;;5051567;28;20722;-64
2023/04/18 02:13:00;;;;;;;3.88;3.58;;;24.10;56.50;;;;;;5052078;28;20295;-64
2023/04/18 02:15:50;;;;;;;3.20;2.90;;;24.20;56.50;;;;;;5052252;28;20285;-64
2023/04/18 02:18:39;;;;;;;3.90;3.50;;;24.20;56.50;;;;;;5051544;28;20705;-64
2023/04/18 02:21:29;;;;;;;3.50;3.20;;;24.10;56.40;;;;;;5052556;28;20193;-64
2023/04/18 02:24:17;;;;;;;4.50;3.58;;;24.10;56.40;;;;;;5052158;28;20280;-64
2023/04/18 02:27:05;;;;;;;4.07;3.60;;;24.10;55.90;;;;;;5052077;28;20302;-64
2023/04/18 02:29:53;;;;;;;3.80;3.50;;;24.20;56.50;;;;;;5051574;28;20201;-64
2023/04/18 02:32:42;;;;;;;3.53;3.22;;;24.10;56.40;;;;;;5051599;28;20251;-64
2023/04/18 02:35:30;;;;;;;3.92;3.50;;;24.10;56.40;;;;;;5052376;28;20279;-64
2023/04/18 02:38:19;;;;;;;3.28;2.97;;;24.10;56.40;;;;;;5051549;28;20703;-64
2023/04/18 02:41:07;;;;;;;3.40;3.10;;;24.10;56.50;;;;;;5051711;28;20203;-64
2023/04/18 02:43:55;;;;;;;3.97;3.47;;;24.00;55.90;;;;;;5083802;22;20724;-78
2023/04/18 02:46:43;;;;;;;3.30;3.00;;;24.10;56.40;;;;;;5090879;28;20203;-73
2023/04/18 02:49:33;;;;;;;3.70;3.35;;;24.10;56.40;;;;;;5095040;28;20198;-74
2023/04/18 02:52:21;;;;;;;3.58;3.28;;;24.10;56.30;;;;;;5094715;28;20555;-74
2023/04/18 02:55:10;;;;;;;3.80;3.50;;;24.00;56.20;;;;;;5112098;28;20252;-75
2023/04/18 02:57:58;;;;;;;2.80;2.55;;;24.10;56.30;;;;;;5115979;28;20278;-74
2023/04/18 03:00:48;;;;;;;4.25;3.33;;;24.10;56.30;;;;;;5115715;28;20622;-74
2023/04/18 03:03:37;;;;;;;4.00;3.60;;;24.10;56.30;;;;;;5118675;28;20234;-74
2023/04/18 03:06:27;;;;;;;3.08;2.88;;;24.10;56.40;;;;;;5118332;28;20206;-75
2023/04/18 03:09:15;;;;;;;3.70;3.40;;;24.00;56.40;;;;;;5116644;28;20202;-75
2023/04/18 03:12:03;;;;;;;3.72;3.42;;;24.00;56.40;;;;;;5114651;28;20219;-75
2023/04/18 03:14:52;;;;;;;4.43;4.00;;;24.00;55.90;;;;;;5115070;28;20226;-76
2023/04/18 03:17:40;;;;;;;4.15;3.75;;;24.00;56.40;;;;;;5114730;28;20235;-75
2023/04/18 03:20:28;;;;;;;4.20;3.80;;;24.00;56.40;;;;;;5115991;28;20191;-76
2023/04/18 03:23:18;;;;;;;3.50;3.17;;;23.90;62.20;;;;;;5115800;28;20221;-76
2023/04/18 03:26:07;;;;;;;4.38;3.65;;;23.90;56.50;;;;;;5113814;28;20198;-76
2023/04/18 03:28:56;;;;;;;4.05;3.67;;;23.80;56.50;;;;;;5115063;28;20203;-76
2023/04/18 03:31:44;;;;;;;3.80;3.50;;;23.80;56.50;;;;;;5115879;28;20215;-75
2023/04/18 03:34:33;;;;;;;3.53;3.22;;;23.90;56.60;;;;;;5114813;28;20301;-75
2023/04/18 03:37:21;;;;;;;3.45;3.17;;;23.90;56.50;;;;;;5114854;28;20203;-75
2023/04/18 03:40:12;;;;;;;3.70;2.85;;;23.90;56.40;;;;;;5116136;28;20205;-74
2023/04/18 03:43:00;;;;;;;3.20;2.90;;;23.90;56.40;;;;;;5095333;28;20192;-75
2023/04/18 03:45:48;;;;;;;4.05;3.17;;;24.00;56.30;;;;;;5106693;28;20199;-75
2023/04/18 03:48:37;;;;;;;4.15;3.75;;;24.00;56.30;;;;;;5119262;28;20256;-75
2023/04/18 03:51:26;;;;;;;3.80;3.50;;;24.00;56.30;;;;;;5110371;28;20620;-75
2023/04/18 03:54:15;;;;;;;3.88;3.13;;;24.00;55.70;;;;;;5100305;28;20249;-75
2023/04/18 03:57:05;;;;;;;3.53;3.22;;;24.00;56.10;;;;;;5100506;28;20204;-75
2023/04/18 03:59:53;;;;;;;4.30;3.72;;;24.00;56.10;;;;;;5099002;28;20200;-75
2023/04/18 04:02:41;;;;;;;3.95;3.55;;;24.00;56.00;;;;;;5099429;28;20200;-75
2023/04/18 04:05:30;;;;;;;4.18;3.78;;;24.10;56.10;;;;;;5099354;28;20215;-76
2023/04/18 04:08:18;;;;;;;3.17;2.88;;;24.50;56.40;;;;;;5098524;28;20278;-76
2023/04/18 04:11:07;;;;;;;3.67;3.33;;;24.10;56.00;;;;;;5098179;28;20224;-76
2023/04/18 04:13:56;;;;;;;4.68;3.53;;;24.10;56.00;;;;;;5098814;28;20228;-75
2023/04/18 04:16:45;;;;;;;4.40;3.53;;;24.10;56.00;;;;;;5098703;28;20192;-75
2023/04/18 04:19:33;;;;;;;7.25;3.63;;;24.10;56.10;;;;;;5098535;28;20200;-77
2023/04/18 04:22:22;;;;;;;3.83;3.50;;;24.10;56.10;;;;;;5098396;28;20585;-74
2023/04/18 04:25:12;;;;;;;3.33;3.03;;;24.10;56.10;;;;;;5098741;28;20285;-75
2023/04/18 04:28:01;;;;;;;3.15;2.85;;;24.10;56.00;;;;;;5098703;28;20228;-75
2023/04/18 04:30:51;;;;;;;4.18;3.78;;;24.10;56.00;;;;;;5098760;28;20196;-75
2023/04/18 04:33:41;;;;;;;3.85;3.47;;;24.10;55.40;;;;;;5099380;28;20308;-75
2023/04/18 04:36:32;;;;;;;3.90;3.60;;;24.00;55.90;;;;;;5098352;28;20196;-75
2023/04/18 04:39:20;;;;;;;3.40;3.08;;;24.10;55.90;;;;;;5104560;28;20200;-75
2023/04/18 04:42:10;;;;;;;3.28;3.08;;;24.10;56.00;;;;;;5098238;28;20188;-74
2023/04/18 04:45:00;;;;;;;3.45;3.15;;;24.10;56.00;;;;;;5098947;28;20224;-75
2023/04/18 04:47:50;;;;;;;3.50;3.20;;;24.10;56.00;;;;;;5117993;28;20199;-75
2023/04/18 04:50:40;;;;;;;3.25;3.03;;;24.10;56.60;;;;;;5118547;28;20200;-74
2023/04/18 04:53:30;;;;;;;3.70;3.40;;;24.10;56.00;;;;;;5118418;28;20607;-75
2023/04/18 04:56:18;;;;;;;3.28;3.05;;;24.10;56.00;;;;;;5116876;28;20714;-75
2023/04/18 04:59:07;;;;;;;2.95;2.75;;;24.10;55.90;;;;;;5115447;28;20222;-75
2023/04/18 05:01:56;;;;;;;3.70;3.30;;;24.10;55.90;;;;;;5115607;28;20195;-74
2023/04/18 05:04:47;;;;;;;3.22;3.03;;;24.10;55.80;;;;;;5116148;28;20579;-75
2023/04/18 05:07:36;;;;;;;3.17;2.95;;;24.10;55.20;;;;;;5115595;28;20202;-74
2023/04/18 05:10:24;;;;;;;4.00;3.20;;;24.20;55.80;;;;;;5116728;28;20207;-74
2023/04/18 05:13:13;;;;;;;3.60;3.30;;;24.10;55.60;;;;;;5117711;28;20691;-75
2023/04/18 05:16:01;;;;;;;4.18;3.78;;;24.20;55.70;;;;;;5118550;28;20620;-75
2023/04/18 05:18:50;;;;;;;5.90;3.40;;;24.20;55.70;;;;;;5116578;28;20201;-76
2023/04/18 05:21:40;;;;;;;6.75;6.10;;;24.20;55.70;;;;;;5117205;28;20206;-75
2023/04/18 05:24:30;;;;;;;3.70;3.40;;;24.10;55.70;;;;;;5117203;28;20230;-76
2023/04/18 05:27:18;;;;;;;4.28;3.88;;;24.10;55.70;;;;;;5118410;28;20221;-75
2023/04/18 05:30:08;;;;;;;3.28;2.97;;;24.00;55.70;;;;;;5117522;28;20750;-75
2023/04/18 05:32:56;;;;;;;5.03;4.05;;;24.00;56.50;;;;;;5117820;28;20227;-76
2023/04/18 05:35:45;;;;;;;3.92;3.53;;;23.90;56.00;;;;;;5116348;28;20191;-75
2023/04/18 05:38:34;;;;;;;4.20;3.38;;;23.80;55.90;;;;;;5116357;28;20199;-75
2023/04/18 05:41:22;;;;;;;3.22;2.97;;;23.80;56.10;;;;;;5116115;28;20242;-76
2023/04/18 05:44:11;;;;;;;3.60;3.38;;;23.80;56.10;;;;;;5115710;28;20591;-76
2023/04/18 05:46:59;;;;;;;3.50;3.20;;;23.90;56.20;;;;;;5100892;28;20196;-75
2023/04/18 05:49:47;;;;;;;3.60;3.30;;;23.90;56.10;;;;;;5098281;28;20211;-75
2023/04/18 05:52:37;;;;;;;3.70;3.40;;;23.90;56.00;;;;;;5097663;28;20700;-75
2023/04/18 05:55:26;;;;;;;4.40;3.40;;;24.00;56.00;;;;;;5096930;28;20301;-75
2023/04/18 05:58:15;;;;;;;3.97;3.20;;;24.00;56.00;;;;;;5097748;28;20198;-76
2023/04/18 06:01:03;;;;;;;3.72;2.92;;;24.00;56.00;;;;;;5097476;28;20230;-76
2023/04/18 06:03:51;;;;;;;3.28;2.97;;;24.00;55.50;;;;;;5096911;28;20208;-75
2023/04/18 06:06:40;;;;;;;3.47;3.17;;;24.00;56.00;;;;;;5097388;28;20204;-75
2023/04/18 06:09:28;;;;;;;3.22;2.85;;;24.00;56.00;;;;;;5096939;28;20203;-75
2023/04/18 06:12:18;;;;;;;5.05;3.65;;;24.00;55.90;;;;;;5097033;28;20220;-77
2023/04/18 06:15:08;;;;;;;3.15;2.63;;;24.00;56.00;;;;;;5097890;28;20261;-77
2023/04/18 06:17:56;;;;;;;3.22;3.03;;;24.00;56.00;;;;;;5095699;28;20253;-78
2023/04/18 06:20:45;;;;;;;3.47;3.13;;;23.90;56.10;;;;;;5083047;28;20228;-76
2023/04/18 06:23:33;;;;;;;5.82;3.97;;;23.90;56.20;;;;;;5075554;28;20232;-76
2023/04/18 06:26:22;;;;;;;3.22;2.92;;;23.90;56.30;;;;;;5077362;28;20287;-77
2023/04/18 06:29:12;;;;;;;3.88;2.95;;;23.90;56.30;;;;;;5078211;28;20208;-76
2023/04/18 06:32:00;;;;;;;3.00;2.65;;;23.90;55.80;;;;;;5089723;28;20188;-77
2023/04/18 06:34:49;;;;;;;3.92;3.20;;;24.00;56.30;;;;;;5094702;28;20284;-77
2023/04/18 06:37:37;;;;;;;4.10;3.47;;;24.10;56.10;;;;;;5095794;28;20594;-76
2023/04/18 06:40:26;;;;;;;3.10;2.90;;;24.20;55.80;;;;;;5095306;28;20203;-76
2023/04/18 06:43:14;;;;;;;4.18;3.63;;;24.40;61.60;;;;;;5089197;28;20200;-75
2023/04/18 06:46:05;;;;;;;4.55;4.10;;;24.20;55.60;;;;;;5104346;28;20198;-76
2023/04/18 06:48:54;;;;;;;3.72;3.42;;;24.20;55.60;;;;;;5101665;28;20193;-76
2023/04/18 06:51:42;;;;;;;4.35;3.10;;;24.10;55.80;;;;;;5092713;28;20203;-76
2023/04/18 06:54:32;;;;;;;4.90;3.50;;;24.20;55.30;;;;;;5093070;28;20231;-77
2023/04/18 06:57:20;;;;;;;7.70;4.60;;;24.20;55.80;;;;;;5081620;28;20192;-75
2023/04/18 07:00:10;;;;;;;4.63;3.28;;;24.10;55.90;;;;;;5095664;28;20290;-75
2023/04/18 07:03:03;;;;;;;4.72;3.70;;;24.20;55.90;;;;;;5077897;28;20620;-79
2023/04/18 07:05:52;;;;;;;3.65;3.35;;;24.20;55.40;;;;;;5090244;28;20192;-77
2023/04/18 07:08:40;;;;;;;6.72;3.60;;;24.20;56.00;;;;;;5089532;28;20210;-75
2023/04/18 07:11:29;;;;;;;3.60;3.13;;;24.20;56.00;;;;;;5098170;28;20211;-78
2023/04/18 07:14:18;;;;;;;3.33;3.10;;;24.30;55.50;;;;;;5098883;28;20271;-75
2023/04/18 07:17:07;;;;;;;3.42;3.13;;;24.30;55.90;;;;;;5095571;28;20612;-75
2023/04/18 07:19:57;;;;;;;4.30;3.45;;;24.40;55.90;;;;;;5100596;28;20195;-77
2023/04/18 07:22:46;;;;;;;3.83;3.53;;;24.40;55.90;;;;;;5105534;28;20203;-75
2023/04/18 07:25:35;;;;;;;5.90;3.78;;;24.30;55.50;;;;;;5102782;28;20200;-76
2023/04/18 07:28:23;;;;;;;8.95;3.08;;;24.20;56.20;;;;;;5099080;28;20204;-77
2023/04/18 07:31:13;;;;;;;4.50;3.35;;;24.20;56.40;;;;;;5102895;28;20660;-79
2023/04/18 07:34:01;;;;;;;3.35;3.05;;;24.10;56.40;;;;;;5088061;28;20216;-77
2023/04/18 07:36:51;;;;;;;4.80;2.95;;;24.10;56.40;;;;;;5083905;28;20224;-78
2023/04/18 07:39:40;;;;;;;3.67;3.25;;;24.10;56.40;;;;;;5098928;28;20200;-78
2023/04/18 07:42:28;;;;;;;5.03;3.40;;;24.20;56.50;;;;;;5104989;28;20206;-79
2023/04/18 07:45:05;;;;;;;3.33;3.13;;;24.20;56.40;;;;;;5103980;28;20223;-79
2023/04/18 07:47:33;;;;;;;4.57;3.30;;;24.20;56.40;;;;;;5112269;28;20220;-80
2023/04/18 07:50:03;;;;;;;4.13;3.17;;;24.30;56.40;;;;;;5107494;28;20192;-76
2023/04/18 07:52:32;;;;;;;3.20;2.90;;;24.30;56.30;;;;;;5102408;28;20203;-75
2023/04/18 07:55:01;;;;;;;4.63;3.33;;;24.40;56.40;;;;;;5101993;28;20224;-76
2023/04/18 07:57:29;;;;;;;5.82;3.08;;;24.30;56.60;;;;;;5098303;28;20204;-74
2023/04/18 07:59:58;;;;;;;5.70;3.10;;;24.40;56.50;;;;;;5095034;28;20215;-76
2023/04/18 08:02:26;;;;;;;4.50;3.22;;;24.40;56.10;;;;;;5100540;28;20226;-77
2023/04/18 08:04:55;;;;;;;4.90;3.15;;;24.30;55.90;;;;;;5085628;28;20269;-78
2023/04/18 08:07:23;;;;;;;7.72;3.78;;;24.30;56.60;;;;;;5095507;28;20324;-65
2023/04/18 08:09:53;;;;;;;4.28;3.63;;;24.20;56.20;;;;;;5089987;28;20196;-63
2023/04/18 08:12:21;;;;;;;5.75;3.50;;;24.00;56.60;;;;;;5092590;28;20217;-66
2023/04/18 08:14:49;;;;;;;5.60;3.90;;;23.70;56.40;;;;;;5096075;28;20230;-67
2023/04/18 08:17:17;;;;;;;4.57;4.07;;;23.60;57.10;;;;;;5096739;28;20200;-65
2023/04/18 08:19:45;;;;;;;3.63;3.08;;;23.50;57.30;;;;;;5092606;28;20253;-65
2023/04/18 08:22:23;;;;;;;7.45;4.93;;;23.40;57.50;;;;;;5075122;28;20283;-67
2023/04/18 08:24:55;;;;;;;5.95;3.75;;;23.20;57.20;;;;;;5091695;28;20308;-66
2023/04/18 08:27:32;;;;;;;4.63;3.80;;;23.20;58.00;;;;;;5092203;28;20200;-65
2023/04/18 08:30:02;;;;;;;6.35;4.18;;;23.10;58.20;;;;;;5095133;28;20200;-68
2023/04/18 08:32:31;;;;;;;4.70;4.20;;;23.10;58.30;;;;;;5096235;28;20245;-68
2023/04/18 08:35:06;;;;;;;5.47;4.40;;;23.00;57.90;;;;;;5082080;28;20255;-68
2023/04/18 08:37:34;;;;;;;6.03;3.92;;;22.90;58.60;;;;;;5094210;28;20204;-69
2023/04/18 08:40:06;;;;;;;9.68;4.78;;;22.80;58.70;;;;;;5086673;28;20246;-67
2023/04/18 08:42:35;;;;;;;4.65;4.28;;;22.70;59.00;;;;;;5097036;28;20199;-65
2023/04/18 08:45:04;;;;;;;7.28;4.35;;;22.60;59.00;;;;;;5086166;28;20228;-65
2023/04/18 08:47:34;;;;;;;6.07;4.75;;;22.50;59.40;;;;;;5095237;28;20212;-67
2023/04/18 08:50:03;;;;;;;5.57;4.50;;;22.40;59.60;;;;;;5087173;28;20210;-67
2023/04/18 08:52:32;;;;;;;6.45;4.50;;;22.30;60.10;;;;;;5094489;28;20200;-67
2023/04/18 08:55:01;;;;;;;5.32;4.00;;;22.20;59.30;;;;;;5094548;28;20745;-67
2023/04/18 08:57:32;;;;;;;5.53;4.60;;;22.10;60.10;;;;;;5093607;28;20203;-66
2023/04/18 09:00:00;;;;;;;5.45;4.95;;;21.90;60.30;;;;;;5093918;28;20192;-66
2023/04/18 09:02:37;;;;;;;6.15;4.50;;;21.90;60.60;;;;;;5093961;28;20196;-66
2023/04/18 09:05:12;;;;;;;5.88;4.45;;;21.70;60.50;;;;;;5075962;28;20212;-66
2023/04/18 09:07:41;;;;;;;5.13;4.63;;;21.60;61.20;;;;;;5081849;28;20199;-66
2023/04/18 09:10:11;;;;;;;6.68;5.40;;;21.40;61.70;;;;;;5093144;28;20266;-66
2023/04/18 09:12:48;;;;;;;5.78;4.47;;;21.20;62.00;;;;;;5076418;28;20271;-66
2023/04/18 09:15:22;;;;;;;6.80;4.70;;;21.10;62.30;;;;;;5089775;28;20219;-68
2023/04/18 09:17:52;;;;;;;5.72;4.13;;;21.00;62.70;;;;;;5094778;28;20207;-65
2023/04/18 09:20:33;;;;;;;5.10;4.60;;;20.90;62.70;;;;;;5080808;28;20201;-65
2023/04/18 09:23:09;;;;;;;7.63;5.18;;;20.60;62.40;;;;;;5088423;28;20203;-67
2023/04/18 09:25:45;;;;;;;6.05;4.00;;;20.60;63.00;;;;;;5088135;28;20199;-66
2023/04/18 09:28:25;;;;;;;7.55;5.72;;;20.60;64.00;;;;;;5086314;28;20208;-66
2023/04/18 09:30:57;;;;;;;5.55;3.88;;;20.50;63.80;;;;;;5088532;28;20210;-65
2023/04/18 09:33:27;;;;;;;5.45;4.85;;;20.20;77.80;;;;;;5091143;28;20200;-66
2023/04/18 09:35:59;;;;;;;5.95;5.35;;;20.30;64.30;;;;;;5084457;28;20188;-66
2023/04/18 09:38:41;;;;;;;4.82;3.72;;;20.20;64.50;;;;;;5084797;28;20273;-66
2023/04/18 09:41:14;;;;;;;7.18;5.15;;;20.10;65.00;;;;;;5090744;28;20292;-67
2023/04/18 09:43:45;;;;;;;5.43;4.57;;;20.00;64.50;;;;;;5075961;28;20224;-65
2023/04/18 09:46:13;;;;;;;6.47;4.55;;;20.00;65.20;;;;;;5075843;28;20220;-65
2023/04/18 09:48:42;;;;;;;5.50;3.63;;;19.90;65.50;;;;;;5076148;28;20196;-65
2023/04/18 09:51:13;;;;;;;6.25;3.92;;;19.80;65.40;;;;;;5075398;28;20205;-64
2023/04/18 09:53:46;;;;;;;8.18;5.03;;;19.90;64.90;;;;;;5082689;28;20215;-65
2023/04/18 09:56:25;;;;;;;4.28;3.63;;;19.90;65.50;;;;;;5088823;28;20212;-64
2023/04/18 09:59:07;;;;;;;4.95;3.90;;;20.00;65.50;;;;;;5093739;28;20283;-64
2023/04/18 10:01:35;;;;;;;4.53;4.13;;;20.10;65.40;;;;;;5109891;28;20195;-64
2023/04/18 10:04:06;;;;;;;4.43;4.03;;;20.30;64.50;;;;;;5098155;28;20254;-64
2023/04/18 10:06:40;;;;;;;7.00;5.78;;;20.30;65.00;;;;;;5086840;28;20202;-64
2023/04/18 10:09:09;;;;;;;5.35;4.55;;;20.40;64.90;;;;;;5090942;28;20208;-64
2023/04/18 10:11:38;;;;;;;4.78;3.53;;;20.50;64.60;;;;;;5076634;28;20217;-64
2023/04/18 10:14:14;;;;;;;6.00;3.75;;;21.00;71.10;;;;;;5087628;28;20342;-65
2023/04/18 10:17:01;;;;;;;7.25;4.13;;;20.70;64.30;;;;;;5078224;28;20683;-66
2023/04/18 10:20:05;;;;;;;5.40;3.40;;;20.80;64.20;;;;;;5091559;28;20256;-67
2023/04/18 10:22:35;;;;;;;4.80;3.50;;;20.90;65.20;;;;;;5088698;28;20307;-67
2023/04/18 10:25:05;;;;;;;6.65;3.83;;;20.90;63.30;;;;;;5079101;28;20273;-66
2023/04/18 10:27:58;;;;;;;4.72;3.95;;;20.90;64.00;;;;;;5084800;28;20230;-67
2023/04/18 10:30:51;;;;;;;7.32;4.40;;;21.40;78.40;;;;;;5080730;28;20207;-67
2023/04/18 10:33:36;;;;;;;7.15;4.10;;;20.90;75.80;;;;;;5085883;28;20219;-67
2023/04/18 10:36:18;;;;;;;8.05;4.18;;;21.00;64.40;;;;;;5090133;28;20266;-67
2023/04/18 10:38:49;;;;;;;4.95;3.63;;;21.00;64.20;;;;;;5092098;28;20249;-68
2023/04/18 10:41:21;;;;;;;3.97;3.63;;;20.90;64.20;;;;;;5092339;28;20196;-68
2023/04/18 10:44:13;;;;;;;5.32;4.65;;;20.90;63.80;;;;;;5085488;28;20220;-69
2023/04/18 10:47:00;;;;;;;7.07;3.88;;;20.90;64.30;;;;;;5072023;28;20204;-68
2023/04/18 10:49:30;;;;;;;6.25;3.97;;;20.90;64.50;;;;;;5081507;28;20199;-67
2023/04/18 10:52:02;;;;;;;3.45;3.15;;;20.90;64.80;;;;;;5092192;28;20227;-68
2023/04/18 10:54:37;;;;;;;6.57;4.55;;;20.90;64.20;;;;;;5085933;28;20217;-67
2023/04/18 10:57:07;;;;;;;4.38;3.67;;;20.90;64.70;;;;;;5074305;28;20249;-68
2023/04/18 10:59:38;;;;;;;4.80;4.18;;;20.80;64.20;;;;;;5079015;28;20192;-68
2023/04/18 11:02:23;;;;;;;6.38;4.65;;;20.80;65.10;;;;;;5091279;28;20237;-69
2023/04/18 11:04:54;;;;;;;5.30;3.67;;;20.80;64.70;;;;;;5072100;28;20226;-68
2023/04/18 11:07:32;;;;;;;3.80;3.30;;;20.70;65.10;;;;;;5087211;28;20203;-69
2023/04/18 11:10:01;;;;;;;4.50;3.35;;;20.70;65.10;;;;;;5087396;28;20206;-67
2023/04/18 11:12:32;;;;;;;4.95;3.75;;;20.70;65.10;;;;;;5097541;28;20200;-69
2023/04/18 11:15:09;;;;;;;6.43;3.80;;;20.80;64.60;;;;;;5087414;28;20250;-68
2023/04/18 11:17:40;;;;;;;4.60;3.03;;;20.80;65.10;;;;;;5085477;28;20230;-68
2023/04/18 11:20:10;;;;;;;5.00;4.07;;;20.90;65.10;;;;;;5090423;28;20195;-67
2023/04/18 11:22:46;;;;;;;7.13;4.30;;;21.00;65.00;;;;;;5105985;28;20196;-67
2023/04/18 11:25:15;;;;;;;4.55;4.15;;;21.00;64.30;;;;;;5080417;28;20310;-68
2023/04/18 11:27:45;;;;;;;7.32;3.67;;;21.00;65.20;;;;;;5094102;28;20218;-67
2023/04/18 11:30:15;;;;;;;8.13;4.10;;;21.00;65.00;;;;;;5087927;28;20219;-65
2023/04/18 11:32:44;;;;;;;7.43;4.18;;;21.00;64.90;;;;;;5090258;28;20196;-66
2023/04/18 11:35:15;;;;;;;5.43;4.20;;;21.10;64.40;;;;;;5099801;28;20231;-64
2023/04/18 11:37:44;;;;;;;4.30;3.80;;;21.10;65.10;;;;;;5111419;28;20227;-67
2023/04/18 11:40:13;;;;;;;4.35;3.95;;;21.10;64.90;;;;;;5090165;28;20204;-63
2023/04/18 11:42:42;;;;;;;5.82;4.18;;;21.10;65.00;;;;;;5086058;28;20204;-64
2023/04/18 11:45:12;;;;;;;7.43;3.97;;;21.10;64.50;;;;;;5090945;28;20302;-65
2023/04/18 11:47:42;;;;;;;3.90;3.33;;;21.10;64.90;;;;;;5078513;28;20196;-64
2023/04/18 11:50:13;;;;;;;3.60;3.30;;;21.10;64.80;;;;;;5080279;28;20192;-65
2023/04/18 11:52:42;;;;;;;7.40;4.05;;;21.10;77.30;;;;;;5076407;28;20203;-65
2023/04/18 11:55:17;;;;;;;6.75;3.90;;;21.10;64.30;;;;;;5092250;28;20216;-65
2023/04/18 11:57:52;;;;;;;3.70;3.33;;;21.10;65.00;;;;;;5084019;28;20204;-64
2023/04/18 12:00:31;;;;;;;5.22;4.10;;;21.00;64.80;;;;;;5081266;28;20238;-64
2023/04/18 12:03:00;;;;;;;4.75;3.97;;;21.00;65.10;;;;;;5091995;28;20219;-64
2023/04/18 12:05:32;;;;;;;5.40;4.22;;;20.90;64.60;;;;;;5080785;28;20217;-64
2023/04/18 12:08:10;;;;;;;4.10;3.20;;;20.90;65.50;;;;;;5077293;28;20197;-64
2023/04/18 12:10:45;;;;;;;5.22;3.60;;;20.90;65.60;;;;;;5093080;28;20230;-64
2023/04/18 12:13:13;;;;;;;4.80;3.22;;;20.90;71.80;;;;;;5098502;28;20203;-65
2023/04/18 12:15:44;;;;;;;4.00;3.55;;;20.90;65.70;;;;;;5094771;28;20265;-65
2023/04/18 12:18:16;;;;;;;5.20;3.25;;;21.00;65.70;;;;;;5095867;28;20208;-65
2023/04/18 12:20:52;;;;;;;7.50;3.65;;;21.60;72.80;;;;;;5081255;28;20270;-65
2023/04/18 12:23:32;;;;;;;3.85;3.30;;;21.10;78.60;;;;;;5100001;28;20735;-64
2023/04/18 12:26:02;;;;;;;3.20;2.90;;;21.20;78.40;;;;;;5082414;28;20246;-64
2023/04/18 12:28:34;;;;;;;4.53;3.33;;;21.50;64.90;;;;;;5090653;28;20206;-67
2023/04/18 12:31:04;;;;;;;4.80;3.70;;;21.60;64.70;;;;;;5084645;28;20232;-65
2023/04/18 12:33:34;;;;;;;3.15;2.85;;;21.70;63.70;;;;;;5094077;28;20228;-66
2023/04/18 12:36:07;;;;;;;5.18;3.60;;;21.80;64.40;;;;;;5094877;28;20250;-64
2023/04/18 12:38:35;;;;;;;4.32;3.53;;;21.90;64.20;;;;;;5093538;28;20204;-65
2023/04/18 12:41:04;;;;;;;5.35;3.20;;;21.90;64.00;;;;;;5094488;28;20207;-64
2023/04/18 12:43:32;;;;;;;8.35;4.00;;;22.00;63.30;;;;;;5095197;28;20274;-66
2023/04/18 12:46:00;;;;;;;9.68;3.58;;;22.00;63.90;;;;;;5091433;28;20192;-64
2023/04/18 12:48:28;;;;;;;3.33;3.03;;;22.00;64.00;;;;;;5096855;28;20204;-65
2023/04/18 12:50:56;;;;;;;4.15;3.75;;;22.00;63.90;;;;;;5094585;28;20245;-65
2023/04/18 12:53:26;;;;;;;3.50;3.20;;;21.70;76.20;;;;;;5094966;28;21000;-65
2023/04/18 12:55:54;;;;;;;9.40;3.70;;;22.00;63.60;;;;;;5084678;28;20224;-65
2023/04/18 12:58:23;;;;;;;7.00;3.47;;;22.00;64.00;;;;;;5089577;28;20211;-65
2023/04/18 13:00:56;;;;;;;5.55;3.67;;;22.00;64.10;;;;;;5087358;28;20218;-64
2023/04/18 13:03:30;;;;;;;3.88;3.05;;;22.10;63.60;;;;;;5089545;28;20220;-65
2023/04/18 13:06:01;;;;;;;10.85;3.92;;;22.10;64.30;;;;;;5091850;28;20188;-66
2023/04/18 13:08:36;;;;;;;5.70;3.20;;;22.20;64.20;;;;;;5088100;28;20188;-66
2023/04/18 13:11:09;;;;;;;4.25;3.60;;;22.40;64.00;;;;;;5095684;28;20208;-66
2023/04/18 13:13:48;;;;;;;9.48;3.40;;;22.80;63.10;;;;;;5094667;28;20219;-65
2023/04/18 13:16:17;;;;;;;8.90;3.35;;;22.80;63.60;;;;;;5095741;28;20234;-66
2023/04/18 13:18:45;;;;;;;6.20;3.08;;;23.00;63.30;;;;;;5091926;28;20297;-67
2023/04/18 13:21:17;;;;;;;6.03;3.40;;;23.20;63.20;;;;;;5090045;28;20196;-66
2023/04/18 13:23:48;;;;;;;7.15;2.80;;;23.40;62.10;;;;;;5082689;28;20581;-66
2023/04/18 13:26:26;;;;;;;7.25;3.20;;;23.40;62.50;;;;;;5091427;28;20191;-66
2023/04/18 13:29:00;;;;;;;3.60;3.20;;;23.60;62.30;;;;;;5094279;28;20192;-66
2023/04/18 13:31:30;;;;;;;4.85;3.58;;;23.70;62.10;;;;;;5091202;28;20716;-63
2023/04/18 13:33:59;;;;;;;3.35;3.08;;;23.80;61.20;;;;;;5090138;28;20712;-63
2023/04/18 13:36:30;;;;;;;3.63;3.33;;;23.80;61.70;;;;;;5085191;28;20215;-64
2023/04/18 13:39:03;;;;;;;4.20;3.30;;;23.90;61.60;;;;;;5087615;28;20200;-66
2023/04/18 13:41:35;;;;;;;12.13;3.67;;;24.00;61.50;;;;;;5085885;28;20208;-63
2023/04/18 13:44:09;;;;;;;4.90;3.45;;;24.10;60.70;;;;;;5097212;28;20223;-63
2023/04/18 13:46:41;;;;;;;6.15;3.35;;;24.10;61.10;;;;;;5085914;28;20242;-64
2023/04/18 13:49:10;;;;;;;4.00;3.15;;;24.20;60.90;;;;;;5083635;28;20684;-64
2023/04/18 13:51:42;;;;;;;4.32;3.00;;;24.30;60.80;;;;;;5084121;28;20606;-64
2023/04/18 13:54:21;;;;;;;3.95;3.65;;;24.40;60.00;;;;;;5088120;28;20662;-66
2023/04/18 13:56:52;;;;;;;3.47;2.70;;;24.40;60.70;;;;;;5086168;28;20254;-64
2023/04/18 13:59:26;;;;;;;4.88;3.70;;;24.50;60.60;;;;;;5089156;28;20196;-63